createdAt,value
2023-04-20T00:00:18.394Z,69.54
2023-04-20T00:01:14.419Z,69.13
2023-04-20T00:02:10.033Z,69.13
2023-04-20T00:03:05.803Z,69.43
2023-04-20T00:04:01.191Z,69.02
2023-04-20T00:04:56.673Z,68.41
2023-04-20T00:05:52.240Z,69.23
2023-04-20T00:06:48.218Z,68.82
2023-04-20T00:07:43.791Z,69.23
2023-04-20T00:08:39.826Z,69.43
2023-04-20T00:09:35.885Z,69.43
2023-04-20T00:10:31.407Z,68.82
2023-04-20T00:11:26.980Z,69.13
2023-04-20T00:12:22.542Z,69.43
2023-04-20T00:13:18.106Z,68.82
2023-04-20T00:14:13.672Z,69.23
2023-04-20T00:15:09.243Z,69.33
2023-04-20T00:16:04.792Z,69.43
2023-04-20T00:17:00.476Z,68.30
2023-04-20T00:17:56.457Z,68.30
2023-04-20T00:18:52.443Z,68.10
2023-04-20T00:19:48.467Z,68.82
2023-04-20T00:20:44.034Z,68.41
2023-04-20T00:21:40.060Z,68.10
2023-04-20T00:22:35.597Z,68.41
2023-04-20T00:23:42.904Z,67.90
2023-04-20T00:24:38.445Z,68.10
2023-04-20T00:25:34.012Z,68.00
2023-04-20T00:26:30.031Z,68.41
2023-04-20T00:27:26.064Z,67.90
2023-04-20T00:28:21.622Z,68.51
2023-04-20T00:29:17.388Z,68.00
2023-04-20T00:30:13.260Z,68.10
2023-04-20T00:31:09.345Z,68.30
2023-04-20T00:32:04.863Z,67.79
2023-04-20T00:33:00.906Z,67.90
2023-04-20T00:33:57.918Z,68.00
2023-04-20T00:34:54.007Z,67.76
2023-04-20T00:35:50.067Z,67.86
2023-04-20T00:36:46.112Z,68.48
2023-04-20T00:37:41.664Z,68.41
2023-04-20T00:38:37.707Z,68.21
2023-04-20T00:39:33.821Z,68.00
2023-04-20T00:40:29.866Z,67.90
2023-04-20T00:41:26.016Z,67.90
2023-04-20T00:42:21.932Z,68.00
2023-04-20T00:43:17.981Z,68.00
2023-04-20T00:44:14.031Z,68.62
2023-04-20T00:45:10.025Z,68.21
2023-04-20T00:46:06.135Z,68.41
2023-04-20T00:47:02.079Z,68.10
2023-04-20T00:47:58.118Z,68.51
2023-04-20T00:48:53.694Z,68.30
2023-04-20T00:49:49.240Z,67.86
2023-04-20T00:50:44.936Z,67.79
2023-04-20T00:51:40.373Z,68.10
2023-04-20T00:52:36.393Z,68.21
2023-04-20T00:53:31.936Z,68.51
2023-04-20T00:54:27.509Z,68.51
2023-04-20T00:55:23.063Z,68.10
2023-04-20T00:56:18.619Z,68.00
2023-04-20T00:57:14.191Z,68.10
2023-04-20T00:58:09.730Z,67.69
2023-04-20T00:59:05.459Z,68.21
2023-04-20T01:00:00.978Z,67.90
2023-04-20T01:00:56.552Z,67.18
2023-04-20T01:01:52.195Z,67.38
2023-04-20T01:02:47.780Z,67.08
2023-04-20T01:03:43.319Z,68.10
2023-04-20T01:04:38.852Z,68.00
2023-04-20T01:05:34.784Z,68.21
2023-04-20T01:06:30.305Z,68.10
2023-04-20T01:07:26.319Z,67.79
2023-04-20T01:08:22.353Z,68.41
2023-04-20T01:09:18.002Z,67.93
2023-04-20T01:10:13.468Z,68.13
2023-04-20T01:11:09.011Z,68.24
2023-04-20T01:12:15.864Z,67.93
2023-04-20T01:13:11.385Z,68.54
2023-04-20T01:14:06.953Z,68.54
2023-04-20T01:15:02.989Z,68.03
2023-04-20T01:15:58.576Z,68.24
2023-04-20T01:16:54.138Z,68.24
2023-04-20T01:17:49.733Z,68.10
2023-04-20T01:18:45.243Z,68.13
2023-04-20T01:19:41.262Z,68.41
2023-04-20T01:20:36.812Z,68.03
2023-04-20T01:21:32.402Z,68.54
2023-04-20T01:22:27.951Z,68.30
2023-04-20T01:23:23.968Z,68.03
2023-04-20T01:24:19.511Z,67.93
2023-04-20T01:25:15.065Z,66.87
2023-04-20T01:26:10.628Z,68.65
2023-04-20T01:27:06.176Z,68.34
2023-04-20T01:28:01.750Z,67.93
2023-04-20T01:28:57.279Z,68.24
2023-04-20T01:29:53.833Z,68.24
2023-04-20T01:30:50.396Z,68.03
2023-04-20T01:31:45.944Z,68.54
2023-04-20T01:32:42.579Z,68.03
2023-04-20T01:33:38.570Z,68.13
2023-04-20T01:34:34.664Z,68.37
2023-04-20T01:35:30.228Z,68.85
2023-04-20T01:36:26.258Z,69.19
2023-04-20T01:37:22.326Z,68.34
2023-04-20T01:38:18.354Z,68.75
2023-04-20T01:39:13.983Z,68.88
2023-04-20T01:40:09.923Z,68.78
2023-04-20T01:41:05.977Z,68.03
2023-04-20T01:42:02.019Z,68.85
2023-04-20T01:42:58.621Z,68.85
2023-04-20T01:43:54.221Z,68.27
2023-04-20T01:44:51.239Z,68.44
2023-04-20T01:45:46.815Z,68.24
2023-04-20T01:46:42.915Z,68.54
2023-04-20T01:47:39.492Z,68.48
2023-04-20T01:48:35.473Z,68.24
2023-04-20T01:49:31.049Z,68.44
2023-04-20T01:50:26.598Z,68.85
2023-04-20T01:51:22.156Z,68.03
2023-04-20T01:52:17.781Z,68.24
2023-04-20T01:53:13.827Z,68.65
2023-04-20T01:54:09.377Z,69.29
2023-04-20T01:55:05.424Z,68.44
2023-04-20T01:56:01.444Z,68.54
2023-04-20T01:56:58.020Z,68.44
2023-04-20T01:57:53.578Z,68.44
2023-04-20T01:58:49.114Z,68.24
2023-04-20T01:59:44.915Z,68.34
2023-04-20T02:00:40.758Z,68.13
2023-04-20T02:01:36.758Z,69.40
2023-04-20T02:02:32.893Z,69.06
2023-04-20T02:03:29.003Z,69.19
2023-04-20T02:04:24.363Z,69.16
2023-04-20T02:05:20.394Z,69.29
2023-04-20T02:06:15.981Z,69.67
2023-04-20T02:07:11.545Z,69.06
2023-04-20T02:08:07.109Z,69.88
2023-04-20T02:09:02.661Z,69.47
2023-04-20T02:09:58.205Z,69.29
2023-04-20T02:10:54.245Z,69.60
2023-04-20T02:11:51.281Z,69.67
2023-04-20T02:12:47.307Z,69.57
2023-04-20T02:13:42.858Z,69.37
2023-04-20T02:14:38.408Z,68.44
2023-04-20T02:15:33.988Z,68.34
2023-04-20T02:16:29.537Z,68.54
2023-04-20T02:17:25.150Z,69.09
2023-04-20T02:18:20.645Z,69.06
2023-04-20T02:19:16.453Z,69.26
2023-04-20T02:20:11.753Z,69.40
2023-04-20T02:21:07.309Z,69.50
2023-04-20T02:22:02.855Z,69.60
2023-04-20T02:22:58.384Z,69.50
2023-04-20T02:23:53.946Z,69.40
2023-04-20T02:24:49.502Z,69.60
2023-04-20T02:25:45.063Z,69.06
2023-04-20T02:26:41.625Z,69.50
2023-04-20T02:27:37.215Z,70.12
2023-04-20T02:28:32.746Z,69.81
2023-04-20T02:29:28.295Z,69.37
2023-04-20T02:30:23.875Z,69.26
2023-04-20T02:31:19.938Z,69.06
2023-04-20T02:32:15.456Z,69.29
2023-04-20T02:33:11.492Z,69.06
2023-04-20T02:34:07.038Z,68.85
2023-04-20T02:35:02.614Z,69.19
2023-04-20T02:35:58.631Z,69.26
2023-04-20T02:36:54.200Z,69.60
2023-04-20T02:37:50.300Z,69.06
2023-04-20T02:38:45.896Z,69.47
2023-04-20T02:39:41.412Z,69.37
2023-04-20T02:40:37.452Z,69.40
2023-04-20T02:41:33.460Z,69.47
2023-04-20T02:42:29.011Z,69.47
2023-04-20T02:43:25.042Z,69.37
2023-04-20T02:44:20.612Z,69.29
2023-04-20T02:45:16.679Z,69.26
2023-04-20T02:46:12.749Z,68.75
2023-04-20T02:46:57.902Z,69.57
2023-04-20T02:47:53.951Z,69.40
2023-04-20T02:48:49.952Z,69.06
2023-04-20T02:49:57.244Z,69.47
2023-04-20T02:50:53.274Z,69.47
2023-04-20T02:51:49.307Z,69.06
2023-04-20T02:52:45.346Z,69.06
2023-04-20T02:53:40.922Z,69.57
2023-04-20T02:54:36.962Z,69.50
2023-04-20T02:55:32.992Z,69.40
2023-04-20T02:56:28.572Z,69.47
2023-04-20T02:57:24.130Z,68.96
2023-04-20T02:58:20.163Z,69.60
2023-04-20T02:59:15.894Z,70.42
2023-04-20T03:00:11.281Z,70.01
2023-04-20T03:01:06.831Z,70.32
2023-04-20T03:02:03.014Z,70.12
2023-04-20T03:02:59.022Z,70.01
2023-04-20T03:03:55.236Z,69.70
2023-04-20T03:04:51.081Z,69.81
2023-04-20T03:05:46.542Z,70.22
2023-04-20T03:06:42.562Z,69.06
2023-04-20T03:07:38.130Z,69.78
2023-04-20T03:08:33.685Z,69.40
2023-04-20T03:09:29.348Z,70.53
2023-04-20T03:10:24.910Z,70.63
2023-04-20T03:11:20.466Z,70.53
2023-04-20T03:12:16.016Z,70.63
2023-04-20T03:13:11.558Z,70.32
2023-04-20T03:14:07.121Z,70.32
2023-04-20T03:15:02.706Z,70.32
2023-04-20T03:15:58.269Z,70.22
2023-04-20T03:16:54.281Z,70.22
2023-04-20T03:17:50.386Z,70.32
2023-04-20T03:18:45.904Z,69.16
2023-04-20T03:19:41.919Z,69.09
2023-04-20T03:20:37.942Z,70.73
2023-04-20T03:21:33.503Z,70.01
2023-04-20T03:22:29.528Z,70.12
2023-04-20T03:23:25.548Z,70.32
2023-04-20T03:24:21.096Z,69.91
2023-04-20T03:25:16.662Z,70.32
2023-04-20T03:26:12.229Z,70.42
2023-04-20T03:27:08.780Z,70.84
2023-04-20T03:28:04.787Z,71.35
2023-04-20T03:29:00.803Z,70.53
2023-04-20T03:29:56.830Z,70.32
2023-04-20T03:30:52.408Z,69.91
2023-04-20T03:31:48.062Z,70.12
2023-04-20T03:32:43.607Z,69.60
2023-04-20T03:33:39.128Z,69.06
2023-04-20T03:34:34.674Z,69.47
2023-04-20T03:35:30.233Z,69.19
2023-04-20T03:36:26.251Z,69.67
2023-04-20T03:37:21.842Z,69.50
2023-04-20T03:38:17.411Z,69.37
2023-04-20T03:39:12.964Z,69.26
2023-04-20T03:40:08.987Z,69.47
2023-04-20T03:41:04.987Z,70.18
2023-04-20T03:42:00.580Z,70.12
2023-04-20T03:42:56.605Z,70.53
2023-04-20T03:43:52.651Z,70.12
2023-04-20T03:44:48.205Z,70.32
2023-04-20T03:45:44.290Z,70.63
2023-04-20T03:46:40.333Z,70.73
2023-04-20T03:47:35.939Z,69.29
2023-04-20T03:48:31.942Z,69.29
2023-04-20T03:49:27.523Z,70.29
2023-04-20T03:50:23.103Z,69.19
2023-04-20T03:51:18.657Z,69.29
2023-04-20T03:52:14.689Z,70.42
2023-04-20T03:53:10.721Z,70.42
2023-04-20T03:54:06.272Z,70.12
2023-04-20T03:55:02.851Z,70.22
2023-04-20T03:55:58.399Z,70.84
2023-04-20T03:56:53.943Z,70.53
2023-04-20T03:57:49.993Z,70.73
2023-04-20T03:58:45.541Z,70.76
2023-04-20T03:59:42.088Z,70.94
2023-04-20T04:00:37.655Z,70.63
2023-04-20T04:01:33.218Z,70.12
2023-04-20T04:02:28.868Z,70.53
2023-04-20T04:03:25.533Z,70.53
2023-04-20T04:04:21.691Z,70.42
2023-04-20T04:05:17.039Z,70.22
2023-04-20T04:06:12.477Z,70.53
2023-04-20T04:07:08.035Z,70.42
2023-04-20T04:08:03.615Z,70.12
2023-04-20T04:08:59.205Z,70.53
2023-04-20T04:09:54.756Z,70.42
2023-04-20T04:10:39.437Z,70.32
2023-04-20T04:11:34.994Z,70.63
2023-04-20T04:12:30.598Z,70.53
2023-04-20T04:13:26.129Z,70.63
2023-04-20T04:14:21.681Z,70.42
2023-04-20T04:15:18.254Z,70.53
2023-04-20T04:16:13.819Z,70.22
2023-04-20T04:17:10.447Z,70.12
2023-04-20T04:18:05.956Z,70.01
2023-04-20T04:19:02.589Z,70.32
2023-04-20T04:19:58.633Z,70.32
2023-04-20T04:20:54.214Z,70.32
2023-04-20T04:21:49.777Z,70.32
2023-04-20T04:22:45.786Z,70.42
2023-04-20T04:23:41.825Z,70.53
2023-04-20T04:24:37.405Z,70.12
2023-04-20T04:25:32.975Z,70.60
2023-04-20T04:26:28.548Z,69.19
2023-04-20T04:27:35.836Z,69.98
2023-04-20T04:28:31.408Z,68.99
2023-04-20T04:29:26.983Z,70.53
2023-04-20T04:30:22.565Z,69.70
2023-04-20T04:31:19.183Z,70.73
2023-04-20T04:32:14.724Z,70.73
2023-04-20T04:33:10.300Z,70.22
2023-04-20T04:34:05.829Z,70.42
2023-04-20T04:35:01.383Z,70.12
2023-04-20T04:35:57.590Z,70.53
2023-04-20T04:36:52.968Z,70.12
2023-04-20T04:37:48.532Z,70.32
2023-04-20T04:38:44.084Z,70.42
2023-04-20T04:39:39.712Z,70.32
2023-04-20T04:40:35.801Z,70.94
2023-04-20T04:41:32.840Z,70.53
2023-04-20T04:42:28.865Z,70.22
2023-04-20T04:43:25.919Z,70.84
2023-04-20T04:44:21.941Z,70.32
2023-04-20T04:45:17.994Z,70.63
2023-04-20T04:46:14.063Z,70.53
2023-04-20T04:47:10.063Z,70.39
2023-04-20T04:48:08.744Z,70.42
2023-04-20T04:49:02.160Z,70.42
2023-04-20T04:49:58.198Z,70.32
2023-04-20T04:51:05.535Z,70.50
2023-04-20T04:52:01.669Z,70.63
2023-04-20T04:52:57.790Z,70.90
2023-04-20T04:53:53.806Z,70.50
2023-04-20T04:54:49.887Z,70.90
2023-04-20T04:55:45.426Z,70.53
2023-04-20T04:56:41.006Z,70.12
2023-04-20T04:57:37.056Z,70.84
2023-04-20T04:58:32.630Z,70.53
2023-04-20T04:59:28.688Z,70.90
2023-04-20T05:00:24.834Z,70.39
2023-04-20T05:01:20.946Z,70.18
2023-04-20T05:02:17.077Z,70.63
2023-04-20T05:03:12.512Z,70.32
2023-04-20T05:04:08.208Z,70.63
2023-04-20T05:05:04.547Z,70.32
2023-04-20T05:06:00.180Z,70.42
2023-04-20T05:06:55.694Z,70.63
2023-04-20T05:07:51.224Z,69.57
2023-04-20T05:08:46.777Z,70.01
2023-04-20T05:09:42.824Z,70.18
2023-04-20T05:10:38.852Z,70.73
2023-04-20T05:11:34.431Z,70.53
2023-04-20T05:12:29.994Z,70.73
2023-04-20T05:13:26.001Z,69.88
2023-04-20T05:14:21.582Z,69.29
2023-04-20T05:15:17.141Z,69.57
2023-04-20T05:16:12.765Z,70.08
2023-04-20T05:17:08.259Z,70.50
2023-04-20T05:18:03.894Z,70.53
2023-04-20T05:18:59.372Z,70.53
2023-04-20T05:19:54.929Z,69.88
2023-04-20T05:20:50.565Z,70.18
2023-04-20T05:21:46.602Z,70.08
2023-04-20T05:22:42.774Z,70.29
2023-04-20T05:23:38.735Z,70.29
2023-04-20T05:24:34.763Z,70.12
2023-04-20T05:25:31.413Z,70.01
2023-04-20T05:26:27.217Z,70.12
2023-04-20T05:27:23.245Z,69.67
2023-04-20T05:28:18.805Z,70.60
2023-04-20T05:29:16.040Z,69.78
2023-04-20T05:30:20.583Z,69.06
2023-04-20T05:31:08.444Z,70.08
2023-04-20T05:32:04.516Z,70.08
2023-04-20T05:33:01.634Z,69.50
2023-04-20T05:34:06.649Z,70.32
2023-04-20T05:35:02.911Z,69.98
2023-04-20T05:35:59.147Z,69.98
2023-04-20T05:36:55.294Z,70.50
2023-04-20T05:37:54.871Z,69.67
2023-04-20T05:38:51.453Z,70.18
2023-04-20T05:39:47.539Z,69.78
2023-04-20T05:40:44.574Z,69.78
2023-04-20T05:41:41.657Z,69.57
2023-04-20T05:42:37.692Z,69.33
2023-04-20T05:43:33.737Z,69.47
2023-04-20T05:44:30.787Z,70.32
2023-04-20T05:45:26.860Z,70.39
2023-04-20T05:46:23.021Z,70.42
2023-04-20T05:47:20.177Z,70.53
2023-04-20T05:48:16.130Z,70.18
2023-04-20T05:49:13.168Z,69.47
2023-04-20T05:50:09.242Z,69.88
2023-04-20T05:51:05.301Z,69.57
2023-04-20T05:52:01.411Z,68.96
2023-04-20T05:52:57.465Z,69.06
2023-04-20T05:53:53.506Z,69.26
2023-04-20T05:54:50.565Z,70.29
2023-04-20T05:55:46.636Z,69.57
2023-04-20T05:56:42.679Z,69.16
2023-04-20T05:57:38.809Z,69.26
2023-04-20T05:58:35.869Z,69.78
2023-04-20T05:59:31.870Z,69.26
2023-04-20T06:00:30.018Z,69.26
2023-04-20T06:01:37.230Z,69.88
2023-04-20T06:02:33.812Z,69.47
2023-04-20T06:03:29.954Z,70.29
2023-04-20T06:04:26.313Z,70.29
2023-04-20T06:05:21.993Z,69.98
2023-04-20T06:06:17.986Z,69.47
2023-04-20T06:07:15.015Z,69.26
2023-04-20T06:08:11.114Z,69.47
2023-04-20T06:09:07.126Z,69.47
2023-04-20T06:10:03.169Z,70.50
2023-04-20T06:11:00.249Z,70.18
2023-04-20T06:11:56.292Z,69.67
2023-04-20T06:12:52.340Z,69.47
2023-04-20T06:13:48.340Z,68.75
2023-04-20T06:14:44.417Z,69.47
2023-04-20T06:15:41.613Z,69.78
2023-04-20T06:16:38.581Z,70.26
2023-04-20T06:17:35.587Z,69.26
2023-04-20T06:18:42.891Z,69.47
2023-04-20T06:19:38.974Z,69.78
2023-04-20T06:20:34.980Z,69.74
2023-04-20T06:21:32.055Z,69.02
2023-04-20T06:22:28.119Z,69.54
2023-04-20T06:23:24.143Z,69.47
2023-04-20T06:24:32.499Z,69.64
2023-04-20T06:25:29.538Z,69.78
2023-04-20T06:26:26.625Z,69.47
2023-04-20T06:27:22.655Z,69.57
2023-04-20T06:28:18.685Z,69.78
2023-04-20T06:29:15.995Z,69.78
2023-04-20T06:30:11.839Z,69.06
2023-04-20T06:31:08.894Z,69.26
2023-04-20T06:32:05.914Z,69.47
2023-04-20T06:33:02.020Z,69.37
2023-04-20T06:34:00.034Z,69.06
2023-04-20T06:34:56.083Z,69.06
2023-04-20T06:35:53.127Z,69.74
2023-04-20T06:36:49.201Z,69.47
2023-04-20T06:37:45.238Z,69.57
2023-04-20T06:38:41.313Z,69.57
2023-04-20T06:39:37.350Z,69.16
2023-04-20T06:40:33.370Z,69.16
2023-04-20T06:41:29.441Z,69.02
2023-04-20T06:42:26.483Z,69.13
2023-04-20T06:43:22.567Z,69.43
2023-04-20T06:44:18.594Z,69.33
2023-04-20T06:45:14.658Z,68.82
2023-04-20T06:46:10.719Z,69.64
2023-04-20T06:47:06.837Z,69.23
2023-04-20T06:48:02.957Z,69.64
2023-04-20T06:48:58.904Z,69.02
2023-04-20T06:49:54.951Z,69.33
2023-04-20T06:50:50.968Z,69.33
2023-04-20T06:51:48.183Z,69.43
2023-04-20T06:52:45.156Z,69.95
2023-04-20T06:53:41.195Z,70.05
2023-04-20T06:54:37.240Z,69.84
2023-04-20T06:55:33.278Z,69.54
2023-04-20T06:56:29.336Z,69.43
2023-04-20T06:57:25.393Z,69.33
2023-04-20T06:58:21.493Z,69.23
2023-04-20T06:59:18.746Z,69.23
2023-04-20T07:00:14.627Z,69.10
2023-04-20T07:01:11.708Z,69.20
2023-04-20T07:02:07.789Z,68.79
2023-04-20T07:03:04.829Z,68.99
2023-04-20T07:04:00.881Z,68.99
2023-04-20T07:04:56.833Z,69.30
2023-04-20T07:05:52.899Z,69.20
2023-04-20T07:06:49.654Z,68.99
2023-04-20T07:07:45.960Z,69.10
2023-04-20T07:08:42.000Z,69.40
2023-04-20T07:09:38.101Z,68.89
2023-04-20T07:10:34.280Z,68.68
2023-04-20T07:11:31.279Z,68.89
2023-04-20T07:12:27.308Z,69.10
2023-04-20T07:13:23.373Z,69.30
2023-04-20T07:14:19.424Z,69.40
2023-04-20T07:15:15.443Z,69.20
2023-04-20T07:16:11.534Z,69.27
2023-04-20T07:17:07.610Z,69.17
2023-04-20T07:18:03.736Z,68.55
2023-04-20T07:18:59.671Z,68.24
2023-04-20T07:19:56.810Z,68.76
2023-04-20T07:20:52.842Z,68.86
2023-04-20T07:21:48.908Z,68.76
2023-04-20T07:22:44.944Z,68.24
2023-04-20T07:23:42.720Z,68.14
2023-04-20T07:24:37.043Z,67.94
2023-04-20T07:25:33.181Z,68.45
2023-04-20T07:26:40.656Z,68.76
2023-04-20T07:27:36.563Z,68.86
2023-04-20T07:28:33.163Z,68.45
2023-04-20T07:29:29.245Z,68.73
2023-04-20T07:30:25.275Z,68.83
2023-04-20T07:31:21.437Z,68.21
2023-04-20T07:32:17.480Z,68.35
2023-04-20T07:33:13.467Z,68.65
2023-04-20T07:34:10.483Z,68.55
2023-04-20T07:35:06.548Z,67.94
2023-04-20T07:36:03.636Z,68.14
2023-04-20T07:36:59.651Z,68.14
2023-04-20T07:37:55.724Z,67.90
2023-04-20T07:38:51.782Z,68.01
2023-04-20T07:39:47.811Z,68.32
2023-04-20T07:40:43.925Z,67.80
2023-04-20T07:41:39.970Z,68.32
2023-04-20T07:42:36.079Z,67.90
2023-04-20T07:43:33.094Z,67.90
2023-04-20T07:44:29.154Z,68.01
2023-04-20T07:45:25.179Z,67.80
2023-04-20T07:46:21.358Z,67.90
2023-04-20T07:47:17.292Z,68.01
2023-04-20T07:48:13.582Z,68.41
2023-04-20T07:49:20.701Z,68.01
2023-04-20T07:50:16.662Z,68.01
2023-04-20T07:51:12.696Z,67.19
2023-04-20T07:52:16.526Z,67.08
2023-04-20T07:53:04.810Z,67.16
2023-04-20T07:54:01.878Z,67.26
2023-04-20T07:54:57.948Z,67.16
2023-04-20T07:55:53.960Z,67.46
2023-04-20T07:56:50.000Z,67.05
2023-04-20T07:57:46.298Z,67.26
2023-04-20T07:58:42.111Z,67.46
2023-04-20T07:59:38.166Z,67.57
2023-04-20T08:00:34.217Z,67.36
2023-04-20T08:01:30.274Z,67.26
2023-04-20T08:02:26.395Z,67.36
2023-04-20T08:03:22.588Z,67.26
2023-04-20T08:04:18.558Z,67.26
2023-04-20T08:05:25.845Z,67.16
2023-04-20T08:06:22.728Z,67.23
2023-04-20T08:07:18.789Z,66.92
2023-04-20T08:08:14.852Z,66.72
2023-04-20T08:09:13.123Z,67.02
2023-04-20T08:10:06.951Z,67.02
2023-04-20T08:11:03.023Z,66.64
2023-04-20T08:11:59.044Z,66.61
2023-04-20T08:12:55.093Z,66.61
2023-04-20T08:13:52.139Z,66.61
2023-04-20T08:14:48.170Z,66.72
2023-04-20T08:15:44.223Z,66.72
2023-04-20T08:16:40.453Z,66.92
2023-04-20T08:17:36.333Z,67.23
2023-04-20T08:18:32.383Z,67.02
2023-04-20T08:19:28.455Z,66.72
2023-04-20T08:20:24.485Z,66.72
2023-04-20T08:21:21.007Z,66.72
2023-04-20T08:22:16.560Z,66.58
2023-04-20T08:23:12.596Z,65.66
2023-04-20T08:24:08.625Z,65.87
2023-04-20T08:25:04.703Z,65.87
2023-04-20T08:26:01.736Z,66.07
2023-04-20T08:26:57.777Z,65.25
2023-04-20T08:27:53.836Z,65.33
2023-04-20T08:28:49.886Z,65.02
2023-04-20T08:29:45.960Z,65.43
2023-04-20T08:30:43.050Z,65.84
2023-04-20T08:31:39.101Z,65.40
2023-04-20T08:32:35.155Z,65.30
2023-04-20T08:33:31.159Z,64.78
2023-04-20T08:34:27.205Z,64.00
2023-04-20T08:35:25.467Z,64.61
2023-04-20T08:36:21.307Z,64.48
2023-04-20T08:37:17.406Z,64.58
2023-04-20T08:38:17.978Z,64.58
2023-04-20T08:39:09.436Z,64.07
2023-04-20T08:40:05.480Z,64.07
2023-04-20T08:41:24.068Z,63.59
2023-04-20T08:42:20.119Z,63.39
2023-04-20T08:43:16.153Z,63.07
2023-04-20T08:44:12.322Z,63.28
2023-04-20T08:45:08.270Z,63.59
2023-04-20T08:46:06.415Z,64.00
2023-04-20T08:47:02.598Z,63.25
2023-04-20T08:47:58.487Z,63.25
2023-04-20T08:48:54.497Z,63.15
2023-04-20T08:49:50.547Z,62.84
2023-04-20T08:50:47.629Z,63.04
2023-04-20T08:51:43.650Z,62.63
2023-04-20T08:52:39.755Z,62.95
2023-04-20T08:53:35.786Z,62.23
2023-04-20T08:54:32.586Z,62.95
2023-04-20T08:55:27.919Z,62.63
2023-04-20T08:56:25.963Z,62.54
2023-04-20T08:57:22.025Z,63.04
2023-04-20T08:58:19.107Z,62.95
2023-04-20T08:59:15.208Z,63.25
2023-04-20T09:00:13.891Z,62.98
2023-04-20T09:01:08.195Z,63.45
2023-04-20T09:02:04.328Z,63.45
2023-04-20T09:03:00.463Z,63.35
2023-04-20T09:03:56.472Z,63.86
2023-04-20T09:04:52.509Z,64.48
2023-04-20T09:05:48.485Z,64.78
2023-04-20T09:06:44.513Z,63.96
2023-04-20T09:07:40.602Z,64.37
2023-04-20T09:08:36.646Z,65.50
2023-04-20T09:09:43.952Z,64.99
2023-04-20T09:10:40.012Z,64.58
2023-04-20T09:11:36.059Z,65.09
2023-04-20T09:12:32.087Z,65.30
2023-04-20T09:13:28.138Z,65.19
2023-04-20T09:14:24.418Z,65.09
2023-04-20T09:15:21.275Z,65.40
2023-04-20T09:16:17.356Z,65.80
2023-04-20T09:17:13.346Z,65.40
2023-04-20T09:18:09.514Z,65.19
2023-04-20T09:19:06.844Z,65.30
2023-04-20T09:20:02.614Z,65.40
2023-04-20T09:20:58.687Z,65.80
2023-04-20T09:21:54.691Z,65.19
2023-04-20T09:22:50.728Z,65.40
2023-04-20T09:23:46.752Z,65.30
2023-04-20T09:24:42.813Z,66.52
2023-04-20T09:25:38.885Z,66.11
2023-04-20T09:26:34.905Z,65.60
2023-04-20T09:27:30.970Z,66.62
2023-04-20T09:28:27.008Z,65.84
2023-04-20T09:29:23.064Z,66.11
2023-04-20T09:30:19.142Z,65.60
2023-04-20T09:31:16.225Z,65.80
2023-04-20T09:32:12.362Z,66.11
2023-04-20T09:33:08.371Z,65.77
2023-04-20T09:34:04.338Z,65.67
2023-04-20T09:35:00.376Z,66.21
2023-04-20T09:35:57.279Z,65.70
2023-04-20T09:36:54.473Z,65.57
2023-04-20T09:37:50.344Z,66.49
2023-04-20T09:38:46.454Z,66.18
2023-04-20T09:39:42.491Z,66.62
2023-04-20T09:40:38.553Z,66.93
2023-04-20T09:41:34.607Z,66.52
2023-04-20T09:42:30.652Z,66.83
2023-04-20T09:43:26.710Z,67.13
2023-04-20T09:44:22.803Z,67.34
2023-04-20T09:45:18.845Z,66.49
2023-04-20T09:46:15.115Z,66.52
2023-04-20T09:47:11.050Z,67.10
2023-04-20T09:48:08.232Z,66.93
2023-04-20T09:49:04.247Z,67.54
2023-04-20T09:50:10.214Z,67.03
2023-04-20T09:50:56.326Z,66.39
2023-04-20T09:51:52.372Z,67.00
2023-04-20T09:52:48.429Z,67.10
2023-04-20T09:53:44.466Z,67.00
2023-04-20T09:54:40.534Z,66.90
2023-04-20T09:55:36.567Z,67.10
2023-04-20T09:56:32.634Z,66.80
2023-04-20T09:57:28.659Z,66.59
2023-04-20T09:58:24.737Z,66.86
2023-04-20T09:59:20.299Z,66.77
2023-04-20T10:00:16.413Z,67.07
2023-04-20T10:01:12.502Z,66.86
2023-04-20T10:02:08.687Z,67.27
2023-04-20T10:03:04.671Z,66.86
2023-04-20T10:04:00.817Z,66.86
2023-04-20T10:04:56.653Z,66.94
2023-04-20T10:05:53.596Z,67.14
2023-04-20T10:06:49.694Z,66.94
2023-04-20T10:07:45.762Z,66.63
2023-04-20T10:08:41.844Z,66.39
2023-04-20T10:09:37.865Z,65.89
2023-04-20T10:10:33.916Z,64.66
2023-04-20T10:11:37.050Z,65.58
2023-04-20T10:12:27.097Z,65.17
2023-04-20T10:13:23.099Z,65.37
2023-04-20T10:14:19.399Z,65.65
2023-04-20T10:15:15.184Z,65.25
2023-04-20T10:16:11.279Z,65.04
2023-04-20T10:17:07.587Z,64.40
2023-04-20T10:17:52.522Z,64.70
2023-04-20T10:18:48.683Z,64.60
2023-04-20T10:19:44.675Z,64.09
2023-04-20T10:20:40.715Z,64.40
2023-04-20T10:21:36.845Z,64.40
2023-04-20T10:22:34.029Z,63.45
2023-04-20T10:23:30.893Z,63.86
2023-04-20T10:24:26.929Z,63.45
2023-04-20T10:25:23.962Z,63.24
2023-04-20T10:26:20.006Z,63.58
2023-04-20T10:27:16.064Z,63.58
2023-04-20T10:28:12.158Z,63.28
2023-04-20T10:29:08.163Z,63.79
2023-04-20T10:30:04.216Z,63.89
2023-04-20T10:31:00.342Z,63.04
2023-04-20T10:31:56.289Z,63.04
2023-04-20T10:32:52.394Z,62.94
2023-04-20T10:33:48.408Z,63.68
2023-04-20T10:34:44.464Z,62.94
2023-04-20T10:35:40.495Z,63.04
2023-04-20T10:36:36.562Z,63.15
2023-04-20T10:37:32.586Z,62.81
2023-04-20T10:38:28.672Z,63.22
2023-04-20T10:39:25.018Z,62.92
2023-04-20T10:40:20.805Z,62.88
2023-04-20T10:41:16.868Z,62.58
2023-04-20T10:42:12.925Z,62.07
2023-04-20T10:43:08.966Z,62.24
2023-04-20T10:44:05.038Z,61.87
2023-04-20T10:45:01.189Z,61.97
2023-04-20T10:45:57.175Z,62.35
2023-04-20T10:46:53.192Z,62.45
2023-04-20T10:47:49.357Z,62.41
2023-04-20T10:48:46.349Z,62.11
2023-04-20T10:49:42.415Z,61.78
2023-04-20T10:50:38.460Z,61.68
2023-04-20T10:51:34.488Z,62.08
2023-04-20T10:52:30.537Z,61.98
2023-04-20T10:53:26.601Z,60.46
2023-04-20T10:54:24.688Z,60.76
2023-04-20T10:55:21.689Z,62.05
2023-04-20T10:56:17.796Z,61.65
2023-04-20T10:57:14.813Z,61.04
2023-04-20T10:58:10.866Z,60.74
2023-04-20T10:59:06.985Z,60.22
2023-04-20T11:00:03.008Z,59.92
2023-04-20T11:01:00.153Z,60.94
2023-04-20T11:01:56.258Z,60.13
2023-04-20T11:02:52.451Z,60.10
2023-04-20T11:03:48.387Z,60.13
2023-04-20T11:04:44.357Z,59.72
2023-04-20T11:05:40.437Z,59.92
2023-04-20T11:06:36.450Z,59.82
2023-04-20T11:07:32.492Z,59.72
2023-04-20T11:08:28.544Z,59.41
2023-04-20T11:09:25.598Z,59.41
2023-04-20T11:10:21.632Z,59.79
2023-04-20T11:11:17.639Z,59.99
2023-04-20T11:12:14.876Z,59.39
2023-04-20T11:13:10.821Z,59.79
2023-04-20T11:14:07.850Z,58.60
2023-04-20T11:15:03.937Z,60.02
2023-04-20T11:16:00.026Z,59.72
2023-04-20T11:16:56.067Z,59.48
2023-04-20T11:17:53.109Z,59.31
2023-04-20T11:18:49.087Z,58.91
2023-04-20T11:19:45.155Z,59.82
2023-04-20T11:20:42.197Z,59.62
2023-04-20T11:21:38.289Z,60.20
2023-04-20T11:22:34.414Z,60.10
2023-04-20T11:23:30.372Z,59.69
2023-04-20T11:24:26.456Z,59.89
2023-04-20T11:25:34.842Z,59.08
2023-04-20T11:26:32.858Z,59.21
2023-04-20T11:27:28.920Z,59.72
2023-04-20T11:28:24.990Z,59.79
2023-04-20T11:29:21.070Z,59.59
2023-04-20T11:30:18.199Z,58.78
2023-04-20T11:31:14.387Z,59.18
2023-04-20T11:32:11.432Z,59.39
2023-04-20T11:33:07.505Z,59.18
2023-04-20T11:34:05.911Z,59.28
2023-04-20T11:35:06.526Z,59.39
2023-04-20T11:35:55.547Z,58.98
2023-04-20T11:36:51.876Z,58.47
2023-04-20T11:37:48.702Z,58.78
2023-04-20T11:38:45.265Z,58.88
2023-04-20T11:39:41.299Z,58.78
2023-04-20T11:40:38.378Z,58.67
2023-04-20T11:41:34.465Z,59.08
2023-04-20T11:42:31.545Z,58.98
2023-04-20T11:43:27.584Z,58.58
2023-04-20T11:44:23.662Z,58.58
2023-04-20T11:45:20.546Z,59.39
2023-04-20T11:46:17.736Z,58.98
2023-04-20T11:47:13.668Z,59.69
2023-04-20T11:48:09.786Z,59.89
2023-04-20T11:49:06.781Z,59.39
2023-04-20T11:50:02.872Z,59.18
2023-04-20T11:50:58.900Z,59.82
2023-04-20T11:52:03.731Z,59.82
2023-04-20T11:52:59.710Z,59.48
2023-04-20T11:53:55.759Z,59.48
2023-04-20T11:54:51.826Z,59.79
2023-04-20T11:55:47.860Z,58.98
2023-04-20T11:56:43.968Z,59.72
2023-04-20T11:57:40.039Z,59.69
2023-04-20T11:58:36.129Z,59.59
2023-04-20T11:59:32.357Z,59.99
2023-04-20T12:00:28.216Z,59.69
2023-04-20T12:01:24.306Z,59.89
2023-04-20T12:02:19.941Z,60.20
2023-04-20T12:03:15.581Z,60.07
2023-04-20T12:04:11.742Z,59.97